createdAt,value
2018-05-15T00:02:07.120Z,17.8
2018-05-15T00:07:02.683Z,17.8
2018-05-15T00:11:58.023Z,17.8
2018-05-15T00:16:53.207Z,17.8
2018-05-15T00:21:48.097Z,17.8
2018-05-15T00:26:43.318Z,17.7
2018-05-15T00:31:38.458Z,17.8
2018-05-15T00:36:33.826Z,17.8
2018-05-15T00:41:28.798Z,17.7
2018-05-15T00:46:24.039Z,17.7
2018-05-15T00:51:19.228Z,17.6
2018-05-15T00:56:14.671Z,17.6
2018-05-15T01:01:09.694Z,17.7
2018-05-15T01:06:04.896Z,17.7
2018-05-15T01:10:59.864Z,17.7
2018-05-15T01:15:55.148Z,17.7
2018-05-15T01:20:50.161Z,17.6
2018-05-15T01:25:44.473Z,17.6
2018-05-15T01:30:39.692Z,17.6
2018-05-15T01:35:34.835Z,17.6
2018-05-15T01:40:29.926Z,17.6
2018-05-15T01:45:25.125Z,17.6
2018-05-15T01:50:20.464Z,17.6
2018-05-15T01:55:15.930Z,17.7
2018-05-15T02:00:10.727Z,17.7
2018-05-15T02:05:06.125Z,17.7
2018-05-15T02:10:01.246Z,17.7
2018-05-15T02:14:56.794Z,17.7
2018-05-15T02:19:51.865Z,17.7
2018-05-15T02:24:46.821Z,17.6
2018-05-15T02:29:42.070Z,17.6
2018-05-15T02:34:37.455Z,17.6
2018-05-15T02:39:32.709Z,17.6
2018-05-15T02:44:27.580Z,17.6
2018-05-15T02:49:22.857Z,17.5
2018-05-15T02:54:18.824Z,17.5
2018-05-15T02:59:13.761Z,17.4
2018-05-15T03:04:09.151Z,17.4
2018-05-15T03:09:04.405Z,17.4
2018-05-15T03:13:59.872Z,17.4
2018-05-15T03:18:55.060Z,17.4
2018-05-15T03:23:50.207Z,17.4
2018-05-15T03:28:45.151Z,17.4
2018-05-15T03:33:40.539Z,17.4
2018-05-15T03:38:35.223Z,17.4
2018-05-15T03:43:30.542Z,17.4
2018-05-15T03:48:25.835Z,17.3
2018-05-15T03:53:21.247Z,17.4
2018-05-15T03:58:16.528Z,17.4
2018-05-15T04:03:11.771Z,17.4
2018-05-15T04:08:06.793Z,17.4
2018-05-15T04:13:01.775Z,17.4
2018-05-15T04:17:56.503Z,17.5
2018-05-15T04:22:51.562Z,17.4
2018-05-15T04:27:46.705Z,17.5
2018-05-15T04:32:41.934Z,17.5
2018-05-15T04:37:36.396Z,17.6
2018-05-15T04:42:31.709Z,17.5
2018-05-15T04:47:26.363Z,17.6
2018-05-15T04:52:21.251Z,17.6
2018-05-15T04:57:16.459Z,17.6
2018-05-15T05:02:11.250Z,17.6
2018-05-15T05:07:05.870Z,17.5
2018-05-15T05:12:01.149Z,17.5
2018-05-15T05:16:56.294Z,17.5
2018-05-15T05:21:51.158Z,17.7
2018-05-15T05:26:46.124Z,17.8
2018-05-15T05:31:41.181Z,17.8
2018-05-15T05:36:36.333Z,17.8
2018-05-15T05:41:31.408Z,17.8
2018-05-15T05:46:26.255Z,17.9
2018-05-15T05:51:21.360Z,18
2018-05-15T05:56:16.582Z,18
2018-05-15T06:01:11.897Z,18.1
2018-05-15T06:06:07.332Z,18.2
2018-05-15T06:11:02.440Z,18.3
2018-05-15T06:15:58.129Z,18.4
2018-05-15T06:20:53.756Z,18.5
2018-05-15T06:25:48.373Z,18.5
2018-05-15T06:30:43.621Z,18.6
2018-05-15T06:35:38.534Z,18.7
2018-05-15T06:40:33.807Z,18.8
2018-05-15T06:45:28.374Z,18.8
2018-05-15T06:50:23.525Z,18.9
2018-05-15T06:55:18.516Z,18.8
2018-05-15T07:00:13.817Z,19
2018-05-15T07:05:08.957Z,19.1
2018-05-15T07:10:04.192Z,19.2
2018-05-15T07:14:59.605Z,19.3
2018-05-15T07:19:54.848Z,19.3
2018-05-15T07:24:50.107Z,19.5
2018-05-15T07:29:45.419Z,19.6
2018-05-15T07:34:40.574Z,19.7
2018-05-15T07:39:36.169Z,19.7
2018-05-15T07:44:31.359Z,19.8
2018-05-15T07:49:26.847Z,20
2018-05-15T07:54:22.204Z,20
2018-05-15T07:59:17.242Z,20.1
2018-05-15T08:04:12.311Z,20.2
2018-05-15T08:09:07.669Z,20.3
2018-05-15T08:14:03.052Z,20.4
2018-05-15T08:18:58.093Z,20.4
2018-05-15T08:23:52.237Z,20.5
2018-05-15T08:28:47.504Z,20.7
2018-05-15T08:33:42.221Z,20.8
2018-05-15T08:38:37.064Z,20.9
2018-05-15T08:43:32.092Z,20.8
2018-05-15T08:48:27.027Z,20.9
2018-05-15T08:53:21.279Z,21.1
2018-05-15T08:58:16.579Z,21.3
2018-05-15T09:03:11.963Z,21.4
2018-05-15T09:08:07.808Z,21.4
2018-05-15T09:13:02.637Z,21.5
2018-05-15T09:17:58.374Z,21.7
2018-05-15T09:22:53.658Z,21.9
2018-05-15T09:27:48.672Z,22.1
2018-05-15T09:32:43.833Z,22
2018-05-15T09:37:39.129Z,21.9
2018-05-15T09:42:34.622Z,22.1
2018-05-15T09:47:31.133Z,22.6
2018-05-15T09:52:27.475Z,22.9
2018-05-15T09:57:23.377Z,23.1
2018-05-15T10:02:18.635Z,23.2
2018-05-15T10:07:14.019Z,23.3
2018-05-15T10:12:09.250Z,23.5
2018-05-15T10:17:03.843Z,23.6
2018-05-15T10:21:58.824Z,23.5
2018-05-15T10:26:54.141Z,23.5
2018-05-15T10:31:49.241Z,23.4
2018-05-15T10:36:43.009Z,23.4
2018-05-15T10:41:38.545Z,23.7
2018-05-15T10:46:34.054Z,23.8
2018-05-15T10:51:29.213Z,23.8
2018-05-15T10:56:24.600Z,23.8
2018-05-15T11:01:20.135Z,23.8
2018-05-15T11:06:20.700Z,24.1
2018-05-15T11:11:19.652Z,24.3
2018-05-15T11:16:18.338Z,24.1
2018-05-15T11:21:14.634Z,24.2
2018-05-15T11:26:09.439Z,24.1
2018-05-15T11:31:04.594Z,24.1
2018-05-15T11:35:59.856Z,23.9
2018-05-15T11:40:54.716Z,23.9
2018-05-15T11:45:50.103Z,24
2018-05-15T11:50:45.660Z,24.1
2018-05-15T11:55:43.129Z,24
2018-05-15T12:00:40.457Z,24.3
2018-05-15T12:05:36.118Z,24.7
2018-05-15T12:10:31.230Z,24.7
2018-05-15T12:15:27.157Z,24.7
2018-05-15T12:20:23.156Z,24.7
2018-05-15T12:25:18.119Z,24.5
2018-05-15T12:30:13.614Z,24.8
2018-05-15T12:35:16.437Z,25.1
2018-05-15T12:40:17.640Z,25.4
2018-05-15T12:45:16.750Z,25.6
2018-05-15T12:50:13.006Z,25.5
2018-05-15T12:55:08.851Z,25.6
2018-05-15T13:00:04.819Z,25.7
2018-05-15T13:04:59.950Z,25.5
2018-05-15T13:09:55.197Z,25.6
2018-05-15T13:14:50.611Z,25.9
2018-05-15T13:19:46.338Z,25.9
2018-05-15T13:24:42.172Z,25.9
2018-05-15T13:29:37.376Z,25.8
2018-05-15T13:34:32.400Z,25.5
2018-05-15T13:39:27.397Z,25.2
2018-05-15T13:44:22.648Z,25.1
2018-05-15T13:49:17.611Z,24.9
2018-05-15T13:54:12.617Z,24.9
2018-05-15T13:59:07.816Z,24.8
2018-05-15T14:04:02.872Z,24.7
2018-05-15T14:08:57.726Z,24.5
2018-05-15T14:13:52.821Z,24.3
2018-05-15T14:18:47.758Z,23.8
2018-05-15T14:23:42.394Z,23.3
2018-05-15T14:28:36.881Z,23
2018-05-15T14:33:31.947Z,22.9
2018-05-15T14:38:27.340Z,22.7
2018-05-15T14:43:22.276Z,22.6
2018-05-15T14:48:17.766Z,22.5
2018-05-15T14:53:12.853Z,22.5
2018-05-15T14:58:08.287Z,22.3
2018-05-15T15:03:03.323Z,22.2
2018-05-15T15:07:58.552Z,22.1
2018-05-15T15:12:53.551Z,22
2018-05-15T15:17:48.566Z,21.8
2018-05-15T15:22:43.507Z,21.5
2018-05-15T15:27:38.807Z,21.4
2018-05-15T15:32:33.627Z,21
2018-05-15T15:37:28.601Z,20.8
2018-05-15T15:42:23.500Z,20.6
2018-05-15T15:47:18.154Z,20.5
2018-05-15T15:52:13.103Z,20.6
2018-05-15T15:57:07.238Z,20.7
2018-05-15T16:02:02.329Z,20.7
2018-05-15T16:06:57.713Z,20.6
2018-05-15T16:11:52.945Z,21
2018-05-15T16:16:48.788Z,21.3
2018-05-15T16:21:43.689Z,21.5
2018-05-15T16:26:39.345Z,21.5
2018-05-15T16:31:34.375Z,21.4
2018-05-15T16:36:29.612Z,21.3
2018-05-15T16:41:24.714Z,21
2018-05-15T16:46:20.146Z,20.8
2018-05-15T16:51:14.982Z,20.7
2018-05-15T16:56:09.860Z,20.6
2018-05-15T17:01:04.951Z,20.5
2018-05-15T17:05:59.788Z,20.4
2018-05-15T17:10:54.710Z,20.3
2018-05-15T17:15:49.895Z,20.2
2018-05-15T17:20:44.881Z,20.1
2018-05-15T17:25:40.114Z,20
2018-05-15T17:30:35.269Z,20
2018-05-15T17:35:30.580Z,20
2018-05-15T17:40:25.202Z,20
2018-05-15T17:45:20.306Z,19.9
2018-05-15T17:50:15.106Z,19.9
2018-05-15T17:55:10.110Z,19.9
2018-05-15T18:00:04.590Z,20
2018-05-15T18:04:59.700Z,20
2018-05-15T18:09:54.561Z,20
2018-05-15T18:14:49.913Z,20
2018-05-15T18:19:45.067Z,20
2018-05-15T18:24:39.826Z,19.9
2018-05-15T18:29:34.789Z,19.9
2018-05-15T18:34:30.313Z,19.9
2018-05-15T18:39:25.645Z,19.9
2018-05-15T18:44:20.931Z,19.9
2018-05-15T18:49:16.108Z,19.9
2018-05-15T18:54:11.476Z,19.9
2018-05-15T18:59:06.716Z,19.7
2018-05-15T19:04:01.715Z,19.8
2018-05-15T19:08:56.868Z,19.6
2018-05-15T19:13:52.168Z,19.6
2018-05-15T19:18:47.556Z,19.3
2018-05-15T19:23:42.777Z,19.3
2018-05-15T19:28:37.716Z,19
2018-05-15T19:33:32.982Z,18.9
2018-05-15T19:38:27.823Z,18.7
2018-05-15T19:43:22.934Z,18.5
2018-05-15T19:48:17.905Z,18.5
2018-05-15T19:53:13.251Z,18.4
2018-05-15T19:58:08.030Z,18.3
2018-05-15T20:03:03.926Z,18.2
2018-05-15T20:08:00.248Z,18.1
2018-05-15T20:12:54.984Z,18.1
2018-05-15T20:17:50.405Z,18.1
2018-05-15T20:22:45.699Z,18
2018-05-15T20:27:40.203Z,17.9
2018-05-15T20:32:35.530Z,18
2018-05-15T20:37:30.774Z,17.8
2018-05-15T20:42:25.938Z,17.8
2018-05-15T20:47:21.204Z,17.8
2018-05-15T20:52:15.913Z,17.7
2018-05-15T20:57:10.765Z,17.6
2018-05-15T21:02:05.664Z,17.6
2018-05-15T21:07:00.674Z,17.4
2018-05-15T21:11:55.948Z,17.6
2018-05-15T21:16:51.202Z,17.6
2018-05-15T21:21:46.047Z,17.6
2018-05-15T21:26:40.937Z,17.5
2018-05-15T21:31:36.323Z,17.6
2018-05-15T21:36:31.598Z,17.6
2018-05-15T21:41:27.073Z,17.4
2018-05-15T21:46:21.611Z,17.6
2018-05-15T21:51:17.055Z,17.6
2018-05-15T21:56:12.519Z,17.6
2018-05-15T22:01:07.932Z,17.6
2018-05-15T22:06:03.109Z,17.5
2018-05-15T22:10:58.259Z,17.6
2018-05-15T22:15:53.410Z,17.5
2018-05-15T22:20:48.757Z,17.6
2018-05-15T22:25:44.020Z,17.7
2018-05-15T22:30:39.481Z,17.6
2018-05-15T22:35:34.459Z,17.6
2018-05-15T22:40:29.868Z,17.6
2018-05-15T22:45:25.140Z,17.6
2018-05-15T22:50:20.930Z,17.6
2018-05-15T22:55:16.285Z,17.5
2018-05-15T23:00:11.449Z,17.5
2018-05-15T23:05:06.788Z,17.6
2018-05-15T23:10:02.176Z,17.6
2018-05-15T23:14:57.501Z,17.5
2018-05-15T23:19:52.674Z,17.6
2018-05-15T23:24:47.979Z,17.4
2018-05-15T23:29:43.076Z,17.6
2018-05-15T23:34:38.632Z,17.6
2018-05-15T23:39:34.108Z,17.4
2018-05-15T23:44:29.692Z,17.5
2018-05-15T23:49:24.679Z,17.5
2018-05-15T23:54:20.234Z,17.4
2018-05-15T23:59:15.273Z,17.5
